sensor_id;sensor_type;location;lat;lon;timestamp;pressure;altitude;pressure_sealevel;temperature;humidity
5883;BME280;2967;51.488;6.618;2024-03-08T00:00:48;101512.50;;;8.01;84.36
5883;BME280;2967;51.488;6.618;2024-03-08T00:05:52;101544.03;;;8.24;84.86
5883;BME280;2967;51.488;6.618;2024-03-08T00:10:55;101539.69;;;8.23;84.00
5883;BME280;2967;51.488;6.618;2024-03-08T00:15:59;101459.28;;;7.73;83.82
5883;BME280;2967;51.488;6.618;2024-03-08T00:21:02;101528.56;;;7.95;85.84
5883;BME280;2967;51.488;6.618;2024-03-08T00:26:04;101525.94;;;8.15;84.48
5883;BME280;2967;51.488;6.618;2024-03-08T00:31:09;101485.06;;;7.65;85.00
5883;BME280;2967;51.488;6.618;2024-03-08T00:36:15;101504.84;;;7.95;85.03
5883;BME280;2967;51.488;6.618;2024-03-08T00:41:18;101523.69;;;8.06;85.37
5883;BME280;2967;51.488;6.618;2024-03-08T00:46:22;101392.97;;;7.24;85.14
5883;BME280;2967;51.488;6.618;2024-03-08T00:51:25;101510.72;;;8.01;85.65
5883;BME280;2967;51.488;6.618;2024-03-08T00:56:30;101454.00;;;7.53;85.40
5883;BME280;2967;51.488;6.618;2024-03-08T01:01:35;101509.19;;;7.76;84.24
5883;BME280;2967;51.488;6.618;2024-03-08T01:06:38;101500.88;;;7.65;85.29
5883;BME280;2967;51.488;6.618;2024-03-08T01:11:41;101488.53;;;7.67;84.89
5883;BME280;2967;51.488;6.618;2024-03-08T01:16:45;101453.66;;;7.41;86.28
5883;BME280;2967;51.488;6.618;2024-03-08T01:21:49;101414.03;;;7.24;85.46
5883;BME280;2967;51.488;6.618;2024-03-08T01:26:53;101373.25;;;7.14;85.47
5883;BME280;2967;51.488;6.618;2024-03-08T01:31:57;101410.16;;;7.32;85.51
5883;BME280;2967;51.488;6.618;2024-03-08T01:37:03;101380.78;;;7.01;86.38
5883;BME280;2967;51.488;6.618;2024-03-08T01:42:06;101393.06;;;7.01;86.33
5883;BME280;2967;51.488;6.618;2024-03-08T01:47:10;101446.41;;;7.26;86.82
5883;BME280;2967;51.488;6.618;2024-03-08T01:52:13;101380.78;;;7.01;86.32
5883;BME280;2967;51.488;6.618;2024-03-08T01:57:17;101447.16;;;7.49;86.62
5883;BME280;2967;51.488;6.618;2024-03-08T02:02:21;101446.28;;;7.49;86.89
5883;BME280;2967;51.488;6.618;2024-03-08T02:07:26;101448.94;;;7.49;87.43
5883;BME280;2967;51.488;6.618;2024-03-08T02:12:29;101443.78;;;7.67;87.45
5883;BME280;2967;51.488;6.618;2024-03-08T02:17:33;101442.00;;;7.46;87.74
5883;BME280;2967;51.488;6.618;2024-03-08T02:22:38;101429.16;;;7.39;88.91
5883;BME280;2967;51.488;6.618;2024-03-08T02:27:41;101418.72;;;7.37;88.64
5883;BME280;2967;51.488;6.618;2024-03-08T02:32:43;101422.84;;;7.23;89.88
5883;BME280;2967;51.488;6.618;2024-03-08T02:37:47;101254.19;;;6.26;88.71
5883;BME280;2967;51.488;6.618;2024-03-08T02:42:51;101394.94;;;7.19;89.25
5883;BME280;2967;51.488;6.618;2024-03-08T02:47:54;101410.28;;;7.29;89.16
5883;BME280;2967;51.488;6.618;2024-03-08T02:52:58;101402.78;;;7.20;89.47
5883;BME280;2967;51.488;6.618;2024-03-08T02:58:02;101395.31;;;7.10;89.52
5883;BME280;2967;51.488;6.618;2024-03-08T03:03:05;101387.91;;;7.19;89.44
5883;BME280;2967;51.488;6.618;2024-03-08T03:08:10;101386.56;;;7.09;89.72
5883;BME280;2967;51.488;6.618;2024-03-08T03:13:15;101379.06;;;7.00;89.92
5883;BME280;2967;51.488;6.618;2024-03-08T03:18:17;101376.56;;;6.97;89.65
5883;BME280;2967;51.488;6.618;2024-03-08T03:23:24;101336.66;;;6.86;88.56
5883;BME280;2967;51.488;6.618;2024-03-08T03:28:28;101368.53;;;7.00;88.86
5883;BME280;2967;51.488;6.618;2024-03-08T03:33:31;101275.47;;;6.63;88.93
5883;BME280;2967;51.488;6.618;2024-03-08T03:38:37;101376.06;;;7.09;88.98
5883;BME280;2967;51.488;6.618;2024-03-08T03:43:40;101298.94;;;6.67;88.66
5883;BME280;2967;51.488;6.618;2024-03-08T03:48:43;101351.69;;;7.04;88.82
5883;BME280;2967;51.488;6.618;2024-03-08T03:53:47;101347.19;;;7.08;88.63
5883;BME280;2967;51.488;6.618;2024-03-08T03:58:50;101344.53;;;7.08;88.79
5883;BME280;2967;51.488;6.618;2024-03-08T04:03:53;101351.97;;;6.98;89.62
5883;BME280;2967;51.488;6.618;2024-03-08T04:08:57;101353.78;;;6.96;89.59
5883;BME280;2967;51.488;6.618;2024-03-08T04:14:00;101311.56;;;6.58;90.13
5883;BME280;2967;51.488;6.618;2024-03-08T04:19:22;101339.19;;;6.89;89.76
5883;BME280;2967;51.488;6.618;2024-03-08T04:24:27;101335.59;;;6.70;90.11
5883;BME280;2967;51.488;6.618;2024-03-08T04:29:30;101329.56;;;6.68;89.87
5883;BME280;2967;51.488;6.618;2024-03-08T04:34:34;101300.59;;;6.48;90.51
5883;BME280;2967;51.488;6.618;2024-03-08T04:39:38;101316.09;;;6.54;90.26
5883;BME280;2967;51.488;6.618;2024-03-08T04:51:35;101316.59;;;6.64;90.76
5883;BME280;2967;51.488;6.618;2024-03-08T04:56:40;101310.84;;;6.54;90.60
5883;BME280;2967;51.488;6.618;2024-03-08T05:01:43;101309.97;;;6.75;89.94
5883;BME280;2967;51.488;6.618;2024-03-08T05:06:46;101307.94;;;6.62;89.79
5883;BME280;2967;51.488;6.618;2024-03-08T05:11:50;101299.72;;;6.69;90.04
5883;BME280;2967;51.488;6.618;2024-03-08T05:16:53;101298.13;;;6.65;90.48
5883;BME280;2967;51.488;6.618;2024-03-08T05:22:00;101204.09;;;6.09;90.43
5883;BME280;2967;51.488;6.618;2024-03-08T05:27:07;101230.78;;;6.20;90.35
5883;BME280;2967;51.488;6.618;2024-03-08T05:32:10;101286.16;;;6.58;90.59
5883;BME280;2967;51.488;6.618;2024-03-08T05:37:13;101292.16;;;6.40;91.13
5883;BME280;2967;51.488;6.618;2024-03-08T05:42:20;101289.25;;;6.46;91.41
5883;BME280;2967;51.488;6.618;2024-03-08T05:47:23;101268.50;;;6.40;91.54
5883;BME280;2967;51.488;6.618;2024-03-08T05:52:29;101277.72;;;6.50;91.22
5883;BME280;2967;51.488;6.618;2024-03-08T05:57:34;101270.28;;;6.18;92.14
5883;BME280;2967;51.488;6.618;2024-03-08T06:02:39;101220.34;;;5.97;91.68
5883;BME280;2967;51.488;6.618;2024-03-08T06:07:43;101190.53;;;5.76;92.22
5883;BME280;2967;51.488;6.618;2024-03-08T06:12:50;101276.75;;;6.31;92.49
5883;BME280;2967;51.488;6.618;2024-03-08T06:17:56;101266.66;;;6.42;91.76
5883;BME280;2967;51.488;6.618;2024-03-08T06:22:59;101267.59;;;6.41;92.14
5883;BME280;2967;51.488;6.618;2024-03-08T06:28:05;101250.75;;;6.02;93.24
5883;BME280;2967;51.488;6.618;2024-03-08T06:33:08;101271.25;;;6.37;92.44
5883;BME280;2967;51.488;6.618;2024-03-08T06:38:12;101165.94;;;5.79;91.94
5883;BME280;2967;51.488;6.618;2024-03-08T06:43:19;101261.59;;;6.38;92.83
5883;BME280;2967;51.488;6.618;2024-03-08T06:48:23;101237.66;;;6.24;92.32
5883;BME280;2967;51.488;6.618;2024-03-08T06:53:26;101262.94;;;6.48;92.59
5883;BME280;2967;51.488;6.618;2024-03-08T06:58:36;101265.41;;;6.51;92.11
5883;BME280;2967;51.488;6.618;2024-03-08T07:03:41;101256.19;;;6.41;92.85
5883;BME280;2967;51.488;6.618;2024-03-08T07:08:45;101257.25;;;6.58;92.65
5883;BME280;2967;51.488;6.618;2024-03-08T07:13:51;101253.56;;;6.62;92.74
5883;BME280;2967;51.488;6.618;2024-03-08T07:18:55;101209.34;;;6.52;91.75
5883;BME280;2967;51.488;6.618;2024-03-08T07:24:00;101243.78;;;6.66;92.50
5883;BME280;2967;51.488;6.618;2024-03-08T07:29:22;101238.47;;;6.67;93.29
5883;BME280;2967;51.488;6.618;2024-03-08T07:34:25;101226.75;;;6.74;93.02
5883;BME280;2967;51.488;6.618;2024-03-08T07:39:28;101242.84;;;6.88;93.32
5883;BME280;2967;51.488;6.618;2024-03-08T07:44:32;101239.66;;;7.00;93.70
5883;BME280;2967;51.488;6.618;2024-03-08T07:49:35;101206.59;;;6.95;93.09
5883;BME280;2967;51.488;6.618;2024-03-08T07:54:40;101226.84;;;7.13;94.07
5883;BME280;2967;51.488;6.618;2024-03-08T07:59:44;101215.06;;;7.21;92.83
5883;BME280;2967;51.488;6.618;2024-03-08T08:04:47;101168.50;;;7.03;93.97
5883;BME280;2967;51.488;6.618;2024-03-08T08:09:52;101194.53;;;7.29;91.92
5883;BME280;2967;51.488;6.618;2024-03-08T08:14:56;101176.41;;;7.42;92.69
5883;BME280;2967;51.488;6.618;2024-03-08T08:20:03;101171.56;;;7.51;91.89
5883;BME280;2967;51.488;6.618;2024-03-08T08:25:12;101180.53;;;7.66;89.94
5883;BME280;2967;51.488;6.618;2024-03-08T08:30:21;101145.25;;;7.51;90.09
5883;BME280;2967;51.488;6.618;2024-03-08T08:35:24;101175.19;;;7.85;91.28
5883;BME280;2967;51.488;6.618;2024-03-08T08:40:27;101167.13;;;7.88;90.89
5883;BME280;2967;51.488;6.618;2024-03-08T08:45:33;101158.78;;;7.97;90.54
5883;BME280;2967;51.488;6.618;2024-03-08T08:50:36;101150.16;;;8.12;90.16
5883;BME280;2967;51.488;6.618;2024-03-08T08:55:45;101146.72;;;8.29;90.13
5883;BME280;2967;51.488;6.618;2024-03-08T09:00:52;101066.59;;;7.97;88.62
5883;BME280;2967;51.488;6.618;2024-03-08T09:05:55;101057.16;;;8.10;89.17
5883;BME280;2967;51.488;6.618;2024-03-08T09:11:12;101025.53;;;8.10;88.70
5883;BME280;2967;51.488;6.618;2024-03-08T09:16:20;101112.13;;;8.69;88.00
5883;BME280;2967;51.488;6.618;2024-03-08T09:21:24;101044.38;;;8.54;86.91
5883;BME280;2967;51.488;6.618;2024-03-08T09:26:28;101107.44;;;8.91;88.25
5883;BME280;2967;51.488;6.618;2024-03-08T09:31:34;101104.47;;;8.97;85.80
5883;BME280;2967;51.488;6.618;2024-03-08T09:36:36;101092.59;;;9.05;86.40
5883;BME280;2967;51.488;6.618;2024-03-08T09:41:39;101080.06;;;9.09;84.90
5883;BME280;2967;51.488;6.618;2024-03-08T09:46:46;101053.84;;;9.06;84.42
5883;BME280;2967;51.488;6.618;2024-03-08T09:51:51;101072.06;;;9.26;84.63
5883;BME280;2967;51.488;6.618;2024-03-08T09:57:20;101015.88;;;9.08;85.34
5883;BME280;2967;51.488;6.618;2024-03-08T10:02:34;101045.44;;;9.46;84.56
5883;BME280;2967;51.488;6.618;2024-03-08T10:07:37;101027.44;;;9.37;86.47
5883;BME280;2967;51.488;6.618;2024-03-08T10:12:40;100866.53;;;8.59;86.44
5883;BME280;2967;51.488;6.618;2024-03-08T10:17:44;101020.72;;;9.47;86.74
5883;BME280;2967;51.488;6.618;2024-03-08T10:22:49;101025.03;;;9.79;86.19
5883;BME280;2967;51.488;6.618;2024-03-08T10:28:07;101018.28;;;9.89;85.83
5883;BME280;2967;51.488;6.618;2024-03-08T10:33:12;100984.47;;;9.80;84.66
5883;BME280;2967;51.488;6.618;2024-03-08T10:38:19;100992.59;;;10.06;85.05
5883;BME280;2967;51.488;6.618;2024-03-08T10:43:23;100949.00;;;9.84;84.27
5883;BME280;2967;51.488;6.618;2024-03-08T10:48:31;100988.19;;;10.21;83.49
5883;BME280;2967;51.488;6.618;2024-03-08T10:53:40;100977.22;;;10.27;83.50
5883;BME280;2967;51.488;6.618;2024-03-08T10:58:44;100920.38;;;10.06;84.26
5883;BME280;2967;51.488;6.618;2024-03-08T11:03:48;100950.81;;;10.41;82.06
5883;BME280;2967;51.488;6.618;2024-03-08T11:08:54;100957.31;;;10.49;83.62
5883;BME280;2967;51.488;6.618;2024-03-08T11:14:00;100942.88;;;10.68;83.28
5883;BME280;2967;51.488;6.618;2024-03-08T11:19:25;100933.72;;;10.74;83.90
5883;BME280;2967;51.488;6.618;2024-03-08T11:24:37;100940.19;;;10.82;83.95
5883;BME280;2967;51.488;6.618;2024-03-08T11:29:41;100931.38;;;10.96;83.48
5883;BME280;2967;51.488;6.618;2024-03-08T11:34:48;100905.00;;;11.21;82.08
5883;BME280;2967;51.488;6.618;2024-03-08T11:39:53;100866.69;;;11.14;81.14
5883;BME280;2967;51.488;6.618;2024-03-08T11:45:01;100851.97;;;11.22;81.02
5883;BME280;2967;51.488;6.618;2024-03-08T11:50:12;100865.22;;;11.61;82.33
5883;BME280;2967;51.488;6.618;2024-03-08T11:55:16;100885.91;;;11.81;79.08
5883;BME280;2967;51.488;6.618;2024-03-08T12:00:34;100858.56;;;11.93;76.85
5883;BME280;2967;51.488;6.618;2024-03-08T12:05:42;100849.34;;;12.11;78.25
5883;BME280;2967;51.488;6.618;2024-03-08T12:10:51;100862.13;;;12.42;74.44
5883;BME280;2967;51.488;6.618;2024-03-08T12:15:58;100855.44;;;12.49;75.33
5883;BME280;2967;51.488;6.618;2024-03-08T12:21:07;100781.56;;;12.56;76.33
5883;BME280;2967;51.488;6.618;2024-03-08T12:32:07;100827.44;;;13.05;75.42
5883;BME280;2967;51.488;6.618;2024-03-08T12:37:14;100808.09;;;13.26;74.47
5883;BME280;2967;51.488;6.618;2024-03-08T12:42:18;100802.13;;;13.57;74.22
5883;BME280;2967;51.488;6.618;2024-03-08T12:47:21;100747.75;;;13.39;73.81
5883;BME280;2967;51.488;6.618;2024-03-08T12:52:26;100745.38;;;13.69;73.11
5883;BME280;2967;51.488;6.618;2024-03-08T12:57:35;100777.91;;;14.16;72.33
5883;BME280;2967;51.488;6.618;2024-03-08T13:02:39;100768.31;;;14.47;70.58
5883;BME280;2967;51.488;6.618;2024-03-08T13:07:45;100718.38;;;14.39;69.65
5883;BME280;2967;51.488;6.618;2024-03-08T13:12:48;100752.75;;;14.74;69.18
5883;BME280;2967;51.488;6.618;2024-03-08T13:17:55;100750.41;;;15.12;68.98
5883;BME280;2967;51.488;6.618;2024-03-08T13:23:00;100683.34;;;14.86;68.36
5883;BME280;2967;51.488;6.618;2024-03-08T13:28:05;100732.19;;;15.48;64.58
5883;BME280;2967;51.488;6.618;2024-03-08T13:33:08;100716.88;;;15.71;74.12
5883;BME280;2967;51.488;6.618;2024-03-08T13:38:16;100643.00;;;15.62;69.85
5883;BME280;2967;51.488;6.618;2024-03-08T13:43:22;100707.94;;;16.30;64.69
5883;BME280;2967;51.488;6.618;2024-03-08T13:48:26;100693.53;;;16.51;67.29
5883;BME280;2967;51.488;6.618;2024-03-08T13:53:31;100631.84;;;15.87;61.20
5883;BME280;2967;51.488;6.618;2024-03-08T13:58:34;100658.25;;;16.38;63.67
5883;BME280;2967;51.488;6.618;2024-03-08T14:03:39;100638.94;;;16.25;58.80
5883;BME280;2967;51.488;6.618;2024-03-08T14:09:01;100578.38;;;15.88;67.75
5883;BME280;2967;51.488;6.618;2024-03-08T14:14:04;100252.31;;;13.84;63.39
5883;BME280;2967;51.488;6.618;2024-03-08T14:19:13;100404.34;;;14.69;60.75
5883;BME280;2967;51.488;6.618;2024-03-08T14:24:20;100526.22;;;15.46;62.37
5883;BME280;2967;51.488;6.618;2024-03-08T14:29:26;100512.75;;;15.18;59.29
5883;BME280;2967;51.488;6.618;2024-03-08T14:34:50;100303.41;;;13.67;52.91
5883;BME280;2967;51.488;6.618;2024-03-08T14:46:05;100499.19;;;14.61;57.32
5883;BME280;2967;51.488;6.618;2024-03-08T14:51:23;100579.94;;;15.21;61.40
5883;BME280;2967;51.488;6.618;2024-03-08T14:57:04;100565.16;;;15.38;60.50
5883;BME280;2967;51.488;6.618;2024-03-08T15:02:38;100186.47;;;13.17;63.04
5883;BME280;2967;51.488;6.618;2024-03-08T15:08:02;100545.38;;;15.31;63.99
5883;BME280;2967;51.488;6.618;2024-03-08T15:13:12;100535.78;;;15.19;59.33
5883;BME280;2967;51.488;6.618;2024-03-08T15:18:26;100533.72;;;15.02;61.71
5883;BME280;2967;51.488;6.618;2024-03-08T15:23:34;100537.59;;;14.88;65.45
5883;BME280;2967;51.488;6.618;2024-03-08T15:28:39;100514.09;;;14.73;61.23
5883;BME280;2967;51.488;6.618;2024-03-08T15:33:47;100523.38;;;14.78;58.70
5883;BME280;2967;51.488;6.618;2024-03-08T15:38:53;100477.22;;;14.48;59.76
5883;BME280;2967;51.488;6.618;2024-03-08T15:43:57;100513.00;;;14.55;58.74
5883;BME280;2967;51.488;6.618;2024-03-08T15:49:04;100483.41;;;14.28;61.79
5883;BME280;2967;51.488;6.618;2024-03-08T15:54:12;100512.25;;;14.43;58.00
5883;BME280;2967;51.488;6.618;2024-03-08T15:59:14;100499.84;;;14.33;59.18
5883;BME280;2967;51.488;6.618;2024-03-08T16:04:28;100474.81;;;14.04;58.36
5883;BME280;2967;51.488;6.618;2024-03-08T16:09:31;100498.09;;;13.91;61.57
5883;BME280;2967;51.488;6.618;2024-03-08T16:14:36;100451.69;;;13.52;61.99
5883;BME280;2967;51.488;6.618;2024-03-08T16:19:43;100477.19;;;13.55;61.75
5883;BME280;2967;51.488;6.618;2024-03-08T16:24:46;100418.16;;;13.09;62.50
5883;BME280;2967;51.488;6.618;2024-03-08T16:29:52;100371.09;;;12.67;64.35
5883;BME280;2967;51.488;6.618;2024-03-08T16:34:56;100484.28;;;13.23;64.84
5883;BME280;2967;51.488;6.618;2024-03-08T16:39:59;100448.91;;;12.90;65.66
5883;BME280;2967;51.488;6.618;2024-03-08T16:45:03;100439.16;;;12.79;64.62
5883;BME280;2967;51.488;6.618;2024-03-08T16:50:08;100458.00;;;12.98;64.10
5883;BME280;2967;51.488;6.618;2024-03-08T16:55:14;100412.03;;;12.54;66.15
5883;BME280;2967;51.488;6.618;2024-03-08T17:00:19;100479.53;;;12.83;67.05
5883;BME280;2967;51.488;6.618;2024-03-08T17:05:26;100475.22;;;12.71;66.45
5883;BME280;2967;51.488;6.618;2024-03-08T17:10:30;100487.88;;;12.56;67.37
5883;BME280;2967;51.488;6.618;2024-03-08T17:15:33;100451.91;;;12.19;68.44
5883;BME280;2967;51.488;6.618;2024-03-08T17:20:39;100372.97;;;11.77;67.92
5883;BME280;2967;51.488;6.618;2024-03-08T17:25:43;100478.16;;;12.22;68.72
5883;BME280;2967;51.488;6.618;2024-03-08T17:30:48;100484.78;;;12.17;69.04
5883;BME280;2967;51.488;6.618;2024-03-08T17:35:52;100468.91;;;11.93;70.02
5883;BME280;2967;51.488;6.618;2024-03-08T17:40:55;100484.81;;;11.93;71.58
5883;BME280;2967;51.488;6.618;2024-03-08T17:46:01;100463.41;;;11.26;72.84
5883;BME280;2967;51.488;6.618;2024-03-08T17:51:07;100500.22;;;11.29;73.11
5883;BME280;2967;51.488;6.618;2024-03-08T17:56:10;100495.19;;;11.13;73.31
5883;BME280;2967;51.488;6.618;2024-03-08T18:01:14;100496.59;;;11.06;74.14
5883;BME280;2967;51.488;6.618;2024-03-08T18:06:20;100491.97;;;10.97;75.23
5883;BME280;2967;51.488;6.618;2024-03-08T18:11:25;100487.41;;;10.99;75.27
5883;BME280;2967;51.488;6.618;2024-03-08T18:16:30;100494.31;;;10.89;75.60
5883;BME280;2967;51.488;6.618;2024-03-08T18:21:37;100455.28;;;10.68;75.73
5883;BME280;2967;51.488;6.618;2024-03-08T18:26:39;100478.84;;;10.83;75.67
5883;BME280;2967;51.488;6.618;2024-03-08T18:31:47;100478.44;;;10.77;76.14
5883;BME280;2967;51.488;6.618;2024-03-08T18:36:52;100455.81;;;11.09;74.58
5883;BME280;2967;51.488;6.618;2024-03-08T18:41:54;100478.97;;;11.18;73.57
5883;BME280;2967;51.488;6.618;2024-03-08T18:46:57;100464.94;;;11.17;73.65
5883;BME280;2967;51.488;6.618;2024-03-08T18:52:04;100470.66;;;11.11;73.65
5883;BME280;2967;51.488;6.618;2024-03-08T18:57:07;100464.47;;;11.23;73.63
5883;BME280;2967;51.488;6.618;2024-03-08T19:02:11;100442.25;;;11.13;73.71
5883;BME280;2967;51.488;6.618;2024-03-08T19:07:19;100440.81;;;11.09;73.31
5883;BME280;2967;51.488;6.618;2024-03-08T19:12:23;100439.84;;;11.10;73.63
5883;BME280;2967;51.488;6.618;2024-03-08T19:17:26;100441.78;;;10.96;74.39
5883;BME280;2967;51.488;6.618;2024-03-08T19:22:30;100437.53;;;10.57;75.55
5883;BME280;2967;51.488;6.618;2024-03-08T19:27:33;100415.97;;;10.39;75.47
5883;BME280;2967;51.488;6.618;2024-03-08T19:32:38;100402.75;;;10.39;76.31
5883;BME280;2967;51.488;6.618;2024-03-08T19:37:42;100405.81;;;10.33;78.96
5883;BME280;2967;51.488;6.618;2024-03-08T19:42:46;100399.28;;;10.13;81.05
5883;BME280;2967;51.488;6.618;2024-03-08T19:47:49;100409.22;;;10.22;81.55
5883;BME280;2967;51.488;6.618;2024-03-08T19:52:56;100410.38;;;10.18;82.12
5883;BME280;2967;51.488;6.618;2024-03-08T19:58:06;100369.63;;;9.96;82.61
5883;BME280;2967;51.488;6.618;2024-03-08T20:03:12;100392.81;;;10.05;83.58
5883;BME280;2967;51.488;6.618;2024-03-08T20:08:23;100406.34;;;10.13;84.33
5883;BME280;2967;51.488;6.618;2024-03-08T20:13:31;100393.34;;;10.10;84.65
5883;BME280;2967;51.488;6.618;2024-03-08T20:18:37;100368.38;;;9.89;85.01
5883;BME280;2967;51.488;6.618;2024-03-08T20:23:43;100395.53;;;9.91;85.50
5883;BME280;2967;51.488;6.618;2024-03-08T20:28:46;100395.16;;;10.22;84.30
5883;BME280;2967;51.488;6.618;2024-03-08T20:33:49;100376.00;;;10.06;85.78
5883;BME280;2967;51.488;6.618;2024-03-08T20:38:53;100363.91;;;9.77;87.40
5883;BME280;2967;51.488;6.618;2024-03-08T20:43:57;100319.09;;;9.38;87.36
5883;BME280;2967;51.488;6.618;2024-03-08T20:49:00;100328.09;;;9.48;88.26
5883;BME280;2967;51.488;6.618;2024-03-08T20:54:04;100352.28;;;9.67;87.54
5883;BME280;2967;51.488;6.618;2024-03-08T20:59:07;100361.91;;;9.68;88.33
5883;BME280;2967;51.488;6.618;2024-03-08T21:04:11;100353.72;;;9.46;89.35
5883;BME280;2967;51.488;6.618;2024-03-08T21:09:16;100359.25;;;9.55;89.19
5883;BME280;2967;51.488;6.618;2024-03-08T21:14:20;100345.41;;;9.52;89.65
5883;BME280;2967;51.488;6.618;2024-03-08T21:19:25;100346.16;;;9.54;89.71
5883;BME280;2967;51.488;6.618;2024-03-08T21:24:30;100349.41;;;9.45;90.07
5883;BME280;2967;51.488;6.618;2024-03-08T21:29:36;100338.72;;;9.34;89.98
5883;BME280;2967;51.488;6.618;2024-03-08T21:34:41;100344.94;;;9.33;90.92
5883;BME280;2967;51.488;6.618;2024-03-08T21:39:46;100323.94;;;9.31;90.24
5883;BME280;2967;51.488;6.618;2024-03-08T21:44:49;100303.94;;;9.02;91.05
5883;BME280;2967;51.488;6.618;2024-03-08T21:49:51;100269.16;;;8.83;90.99
5883;BME280;2967;51.488;6.618;2024-03-08T21:54:57;100269.03;;;8.72;90.96
5883;BME280;2967;51.488;6.618;2024-03-08T22:00:00;100095.16;;;7.65;90.93
5883;BME280;2967;51.488;6.618;2024-03-08T22:05:13;100305.78;;;8.88;91.34
5883;BME280;2967;51.488;6.618;2024-03-08T22:10:19;100317.22;;;9.01;91.08
5883;BME280;2967;51.488;6.618;2024-03-08T22:15:29;100351.00;;;9.08;91.55
5883;BME280;2967;51.488;6.618;2024-03-08T22:20:32;100348.44;;;9.07;91.51
5883;BME280;2967;51.488;6.618;2024-03-08T22:25:39;100341.16;;;8.98;91.44
5883;BME280;2967;51.488;6.618;2024-03-08T22:30:44;100338.91;;;8.92;91.60
5883;BME280;2967;51.488;6.618;2024-03-08T22:35:49;100335.63;;;8.88;90.94
5883;BME280;2967;51.488;6.618;2024-03-08T22:40:58;100339.72;;;8.80;91.57
5883;BME280;2967;51.488;6.618;2024-03-08T22:46:02;100328.59;;;8.75;90.50
5883;BME280;2967;51.488;6.618;2024-03-08T22:51:09;100315.69;;;8.58;90.92
5883;BME280;2967;51.488;6.618;2024-03-08T22:56:18;100207.81;;;8.00;91.79
5883;BME280;2967;51.488;6.618;2024-03-08T23:01:21;100312.88;;;9.00;93.43
5883;BME280;2967;51.488;6.618;2024-03-08T23:06:37;100309.63;;;9.48;89.43
5883;BME280;2967;51.488;6.618;2024-03-08T23:11:43;100010.88;;;7.40;89.00
5883;BME280;2967;51.488;6.618;2024-03-08T23:16:47;100301.72;;;9.09;90.07
5883;BME280;2967;51.488;6.618;2024-03-08T23:21:52;100295.25;;;9.00;90.88
5883;BME280;2967;51.488;6.618;2024-03-08T23:26:57;100296.94;;;9.01;91.49
5883;BME280;2967;51.488;6.618;2024-03-08T23:31:59;100293.13;;;8.93;92.01
5883;BME280;2967;51.488;6.618;2024-03-08T23:37:02;100286.56;;;8.86;92.67
5883;BME280;2967;51.488;6.618;2024-03-08T23:42:10;100266.78;;;8.66;93.46
5883;BME280;2967;51.488;6.618;2024-03-08T23:47:13;100224.19;;;8.46;93.06
5883;BME280;2967;51.488;6.618;2024-03-08T23:52:16;100271.84;;;8.69;93.99
5883;BME280;2967;51.488;6.618;2024-03-08T23:57:22;100281.13;;;8.62;94.06
